Powered by GoogleTranslate

Accident Search Results

Description, Abstract, KeywordSICNAICSDate RangeOfficeInsp Nr
Keyword: "Electric Cable"AllAllAllAllAll

By Date

Results 1 - 20 of 281
Result Page: 1 2 3 4 5 6 7 8 9 10 ...
  # Summary Nr Event Date Report ID Fat SIC Event Description
1 101755.01 12/27/2017 0626000 X Employee Comes Into Contact With 270 To 277 Volt Wire And Is
2 100702.01 11/06/2017 0522500   Electrical Apprentice Is Shocked And Burned By Energized Cab
3 100929.01 10/19/2017 0552651   Employee Installing Cable Falls And Breaks Both Heels
4 100032.01 10/18/2017 0454711   Two Electrical Employees Are Burned In Arc Flash
5 103468.01 09/18/2017 0950411 X Employee Falls From Ladder And Incurs Head Injury
6 96696.015 06/26/2017 0625400   Worker Pulling Energized Electrical Cable Is Shocked, Burned
7 97381.015 06/22/2017 0950624 X Office Worker Trips On Wires, Falls, And Later Dies
8 96454.015 06/19/2017 0830600 X Employee Is Electrocuted While Trimming Trees
9 99465.015 05/08/2017 0950641   Two Employees Are Burned By Electric Cable
10 94770.015 04/11/2017 0112600   Employee Handling Electrical Cable Incurs Finger Amputation
11 94163.015 03/20/2017 0626300   Power Line Worker Sustains Arc Flash Burns And Is Hospitaliz
12 84299.015 04/07/2016 0626300 X Employee Is Electrocuted While Installing Return Air Plenum
13 76756.015 05/07/2015 0625700   Employee Receives Several Flash Burns When Pulling Cable Fro
14 202558094 03/19/2014 0950631   1731 Two Workers Are Burned In Electric Arc Flash
15 201205242 03/05/2014 1054114   4911 Employee Contacts Electrical Cable And Is Injured Or Dies
16 201130275 01/16/2014 0950613   9631 Two Employees Are Struck By Cable And Are Injured
17 202556635 09/24/2013 0950631 X 1731 Employee Suffers Electrocution When Contact 480 Volt Current
18 202715538 09/06/2013 0950633 X 1731 Electrical Worker Is Killed While Pulling Wire
19 201010527 08/27/2013 0950661   3321 Employee Sustains Compound Fracture When Leg Pinned
20 200515898 08/22/2013 0552700 X 1761 Worker Contacts Electrical Line And Is Electrocuted

Thank You for Visiting Our Website

You are exiting the Department of Labor's Web server.

The Department of Labor does not endorse, takes no responsibility for, and exercises no control over the linked organization or its views, or contents, nor does it vouch for the accuracy or accessibility of the information contained on the destination server. The Department of Labor also cannot authorize the use of copyrighted materials contained in linked Web sites. Users must request such authorization from the sponsor of the linked Web site. Thank you for visiting our site. Please click the button below to continue.

Close